createdAt,value
2023-05-19T00:00:12.393Z,198.08
2023-05-19T00:01:12.422Z,196.96
2023-05-19T00:02:12.564Z,195.62
2023-05-19T00:03:12.614Z,196.55
2023-05-19T00:04:12.571Z,198.28
2023-05-19T00:05:12.613Z,199.74
2023-05-19T00:06:12.688Z,199.91
2023-05-19T00:07:12.669Z,196.91
2023-05-19T00:08:12.671Z,195.76
2023-05-19T00:09:12.748Z,195.02
2023-05-19T00:10:12.707Z,192.45
2023-05-19T00:11:12.749Z,192.14
2023-05-19T00:12:12.763Z,193.75
2023-05-19T00:13:12.781Z,195.73
2023-05-19T00:14:12.821Z,195.61
2023-05-19T00:15:12.806Z,196.97
2023-05-19T00:16:12.888Z,200.06
2023-05-19T00:17:12.900Z,204.07
2023-05-19T00:18:12.923Z,203.32
2023-05-19T00:19:12.949Z,203.11
2023-05-19T00:20:12.956Z,203.81
2023-05-19T00:21:12.976Z,203.28
2023-05-19T00:22:13.073Z,204.60
2023-05-19T00:23:13.143Z,205.98
2023-05-19T00:24:13.171Z,208.31
2023-05-19T00:25:13.191Z,210.38
2023-05-19T00:26:13.240Z,207.19
2023-05-19T00:27:13.332Z,208.75
2023-05-19T00:28:13.300Z,208.17
2023-05-19T00:29:13.402Z,208.88
2023-05-19T00:30:13.359Z,210.60
2023-05-19T00:31:13.419Z,210.28
2023-05-19T00:32:13.518Z,209.64
2023-05-19T00:33:13.426Z,211.52
2023-05-19T00:34:13.420Z,212.80
2023-05-19T00:35:13.484Z,212.10
2023-05-19T00:36:13.486Z,209.77
2023-05-19T00:37:13.495Z,208.01
2023-05-19T00:38:13.493Z,210.48
2023-05-19T00:39:13.511Z,210.19
2023-05-19T00:40:13.526Z,211.07
2023-05-19T00:41:13.511Z,213.61
2023-05-19T00:42:13.556Z,217.88
2023-05-19T00:43:13.587Z,218.48
2023-05-19T00:44:13.624Z,214.04
2023-05-19T00:45:13.691Z,213.59
2023-05-19T00:46:13.692Z,215.66
2023-05-19T00:47:13.670Z,218.67
2023-05-19T00:48:13.674Z,219.99
2023-05-19T00:49:13.673Z,218.10
2023-05-19T00:50:13.737Z,215.89
2023-05-19T00:51:13.775Z,214.64
2023-05-19T00:52:13.758Z,214.35
2023-05-19T00:53:13.792Z,214.25
2023-05-19T00:54:13.787Z,220.80
2023-05-19T00:55:13.815Z,226.02
2023-05-19T00:56:13.833Z,224.52
2023-05-19T00:57:13.864Z,222.97
2023-05-19T00:58:13.843Z,223.37
2023-05-19T00:59:13.876Z,224.97
2023-05-19T01:00:13.906Z,224.18
2023-05-19T01:01:13.970Z,224.71
2023-05-19T01:02:13.956Z,226.52
2023-05-19T01:03:14.118Z,225.47
2023-05-19T01:04:14.010Z,224.67
2023-05-19T01:05:14.058Z,225.88
2023-05-19T01:06:14.058Z,228.03
2023-05-19T01:07:14.108Z,228.80
2023-05-19T01:08:14.153Z,229.21
2023-05-19T01:09:14.102Z,229.19
2023-05-19T01:10:14.162Z,230.33
2023-05-19T01:11:14.156Z,230.95
2023-05-19T01:12:14.210Z,229.30
2023-05-19T01:13:14.299Z,229.09
2023-05-19T01:14:14.291Z,229.19
2023-05-19T01:15:14.294Z,229.70
2023-05-19T01:16:14.341Z,228.48
2023-05-19T01:17:14.306Z,228.73
2023-05-19T01:18:14.367Z,228.59
2023-05-19T01:19:14.375Z,230.40
2023-05-19T01:20:14.354Z,230.55
2023-05-19T01:21:14.358Z,231.38
2023-05-19T01:22:14.367Z,230.69
2023-05-19T01:23:14.368Z,231.22
2023-05-19T01:24:14.412Z,231.26
2023-05-19T01:25:14.393Z,232.22
2023-05-19T01:26:14.436Z,233.61
2023-05-19T01:27:14.420Z,234.04
2023-05-19T01:28:14.426Z,234.91
2023-05-19T01:29:14.437Z,235.21
2023-05-19T01:30:14.448Z,233.70
2023-05-19T01:31:14.454Z,233.22
2023-05-19T01:32:14.519Z,234.66
2023-05-19T01:33:14.588Z,234.27
2023-05-19T01:34:14.526Z,232.41
2023-05-19T01:35:14.512Z,230.70
2023-05-19T01:36:14.542Z,230.85
2023-05-19T01:37:14.538Z,230.80
2023-05-19T01:38:14.584Z,232.86
2023-05-19T01:39:14.572Z,234.45
2023-05-19T01:40:14.589Z,234.89
2023-05-19T01:41:14.570Z,233.23
2023-05-19T01:42:14.621Z,232.51
2023-05-19T01:43:14.612Z,231.82
2023-05-19T01:44:14.650Z,230.66
2023-05-19T01:45:14.647Z,231.45
2023-05-19T01:46:14.673Z,232.15
2023-05-19T01:47:14.699Z,231.85
2023-05-19T01:48:14.763Z,232.20
2023-05-19T01:49:14.716Z,231.61
2023-05-19T01:50:14.716Z,230.70
2023-05-19T01:51:14.733Z,230.54
2023-05-19T01:52:14.738Z,231.31
2023-05-19T01:53:14.750Z,232.64
2023-05-19T01:54:14.781Z,233.49
2023-05-19T01:55:14.791Z,234.51
2023-05-19T01:56:14.796Z,233.63
2023-05-19T01:57:14.816Z,238.01
2023-05-19T01:58:14.843Z,241.49
2023-05-19T01:59:14.840Z,244.16
2023-05-19T02:00:14.845Z,246.13
2023-05-19T02:01:14.910Z,247.05
2023-05-19T02:02:14.920Z,245.87
2023-05-19T02:03:14.943Z,248.07
2023-05-19T02:04:15.023Z,248.29
2023-05-19T02:05:15.019Z,249.78
2023-05-19T02:06:15.060Z,250.00
2023-05-19T02:07:15.081Z,250.00
2023-05-19T02:08:15.119Z,250.05
2023-05-19T02:09:15.186Z,250.00
2023-05-19T02:10:15.232Z,247.91
2023-05-19T02:11:15.253Z,248.77
2023-05-19T02:12:15.299Z,247.02
2023-05-19T02:13:15.305Z,248.28
2023-05-19T02:14:15.334Z,249.96
2023-05-19T02:15:15.394Z,248.02
2023-05-19T02:16:15.502Z,246.89
2023-05-19T02:17:15.496Z,246.20
2023-05-19T02:18:15.556Z,247.27
2023-05-19T02:19:15.628Z,248.38
2023-05-19T02:20:15.620Z,249.67
2023-05-19T02:21:15.658Z,249.07
2023-05-19T02:22:15.683Z,249.67
2023-05-19T02:23:15.702Z,249.54
2023-05-19T02:24:15.765Z,250.10
2023-05-19T02:25:15.798Z,250.07
2023-05-19T02:26:15.816Z,249.12
2023-05-19T02:27:15.842Z,248.72
2023-05-19T02:28:16.532Z,250.02
2023-05-19T02:29:15.891Z,249.90
2023-05-19T02:30:15.935Z,249.01
2023-05-19T02:31:15.923Z,248.97
2023-05-19T02:32:15.981Z,248.43
2023-05-19T02:33:15.981Z,248.83
2023-05-19T02:34:16.031Z,248.49
2023-05-19T02:35:16.050Z,247.66
2023-05-19T02:36:16.052Z,246.55
2023-05-19T02:37:16.083Z,247.28
2023-05-19T02:38:16.067Z,248.31
2023-05-19T02:39:16.078Z,244.39
2023-05-19T02:40:16.153Z,242.16
2023-05-19T02:41:16.113Z,239.51
2023-05-19T02:42:16.163Z,240.58
2023-05-19T02:43:16.171Z,241.41
2023-05-19T02:44:16.208Z,242.19
2023-05-19T02:45:16.237Z,241.12
2023-05-19T02:46:16.306Z,241.61
2023-05-19T02:47:16.303Z,238.35
2023-05-19T02:48:16.368Z,234.21
2023-05-19T02:49:16.371Z,234.67
2023-05-19T02:50:16.410Z,238.37
2023-05-19T02:51:16.495Z,241.97
2023-05-19T02:52:16.456Z,243.53
2023-05-19T02:53:16.453Z,243.28
2023-05-19T02:54:16.471Z,242.12
2023-05-19T02:55:16.510Z,242.29
2023-05-19T02:56:16.516Z,244.60
2023-05-19T02:57:16.557Z,241.27
2023-05-19T02:58:16.608Z,238.63
2023-05-19T02:59:16.608Z,240.69
2023-05-19T03:00:16.653Z,243.96
2023-05-19T03:01:16.788Z,245.37
2023-05-19T03:02:16.714Z,245.83
2023-05-19T03:03:16.804Z,245.63
2023-05-19T03:04:16.706Z,243.91
2023-05-19T03:05:16.769Z,242.70
2023-05-19T03:06:16.751Z,246.56
2023-05-19T03:07:16.772Z,248.51
2023-05-19T03:08:16.777Z,247.34
2023-05-19T03:09:16.810Z,245.10
2023-05-19T03:10:16.865Z,242.72
2023-05-19T03:11:16.839Z,241.41
2023-05-19T03:12:16.874Z,241.31
2023-05-19T03:13:17.000Z,240.82
2023-05-19T03:14:16.918Z,242.33
2023-05-19T03:15:16.951Z,243.82
2023-05-19T03:16:16.937Z,242.40
2023-05-19T03:17:17.018Z,242.98
2023-05-19T03:18:17.015Z,245.09
2023-05-19T03:19:17.044Z,247.64
2023-05-19T03:20:16.979Z,246.97
2023-05-19T03:21:17.031Z,246.70
2023-05-19T03:22:17.057Z,249.01
2023-05-19T03:23:17.077Z,248.98
2023-05-19T03:24:17.072Z,248.68
2023-05-19T03:25:17.102Z,249.34
2023-05-19T03:26:17.212Z,249.06
2023-05-19T03:27:17.147Z,249.53
2023-05-19T03:28:17.252Z,250.03
2023-05-19T03:29:17.207Z,249.87
2023-05-19T03:30:17.198Z,250.00
2023-05-19T03:31:17.244Z,250.29
2023-05-19T03:32:17.292Z,250.00
2023-05-19T03:33:17.310Z,250.00
2023-05-19T03:34:17.989Z,249.84
2023-05-19T03:35:17.271Z,246.74
2023-05-19T03:36:17.317Z,246.18
2023-05-19T03:37:17.324Z,247.73
2023-05-19T03:38:17.372Z,249.32
2023-05-19T03:39:17.447Z,250.00
2023-05-19T03:40:17.444Z,250.07
2023-05-19T03:41:17.448Z,249.78
2023-05-19T03:42:17.506Z,248.23
2023-05-19T03:43:17.520Z,245.72
2023-05-19T03:44:17.531Z,243.48
2023-05-19T03:45:17.572Z,239.77
2023-05-19T03:46:17.694Z,235.11
2023-05-19T03:47:17.664Z,236.08
2023-05-19T03:48:20.367Z,237.95
2023-05-19T03:49:17.733Z,239.56
2023-05-19T03:50:17.720Z,239.86
2023-05-19T03:51:17.716Z,242.25
2023-05-19T03:52:17.652Z,243.15
2023-05-19T03:53:17.697Z,243.18
2023-05-19T03:54:17.677Z,249.34
2023-05-19T03:55:17.640Z,252.23
2023-05-19T03:56:17.651Z,247.72
2023-05-19T03:57:17.724Z,243.80
2023-05-19T03:58:17.615Z,238.01
2023-05-19T03:59:17.634Z,235.82
2023-05-19T04:00:17.603Z,235.87
2023-05-19T04:01:17.605Z,233.25
2023-05-19T04:02:17.606Z,232.28
2023-05-19T04:03:17.774Z,232.15
2023-05-19T04:04:17.672Z,231.79
2023-05-19T04:05:17.582Z,230.28
2023-05-19T04:06:17.604Z,230.98
2023-05-19T04:07:17.568Z,232.21
2023-05-19T04:08:17.564Z,232.70
2023-05-19T04:09:17.593Z,234.16
2023-05-19T04:10:17.573Z,234.87
2023-05-19T04:11:17.538Z,239.12
2023-05-19T04:12:17.547Z,242.44
2023-05-19T04:13:17.524Z,239.73
2023-05-19T04:14:17.513Z,236.34
2023-05-19T04:15:17.499Z,235.45
2023-05-19T04:16:17.599Z,237.40
2023-05-19T04:17:17.524Z,236.76
2023-05-19T04:18:17.516Z,233.03
2023-05-19T04:19:17.826Z,231.81
2023-05-19T04:20:17.487Z,232.22
2023-05-19T04:21:17.475Z,231.77
2023-05-19T04:22:17.511Z,235.42
2023-05-19T04:23:17.443Z,235.09
2023-05-19T04:24:17.445Z,230.70
2023-05-19T04:25:17.463Z,226.95
2023-05-19T04:26:17.421Z,228.21
2023-05-19T04:27:17.427Z,223.26
2023-05-19T04:28:17.400Z,218.87
2023-05-19T04:29:17.447Z,218.53
2023-05-19T04:30:18.583Z,219.94
2023-05-19T04:31:17.424Z,220.85
2023-05-19T04:32:17.458Z,225.84
2023-05-19T04:33:17.383Z,229.26
2023-05-19T04:34:17.383Z,233.18
2023-05-19T04:35:17.379Z,235.08
2023-05-19T04:36:17.361Z,230.34
2023-05-19T04:37:17.353Z,225.55
2023-05-19T04:38:17.378Z,223.29
2023-05-19T04:39:17.333Z,227.22
2023-05-19T04:40:17.342Z,229.01
2023-05-19T04:41:17.352Z,229.65
2023-05-19T04:42:17.309Z,232.95
2023-05-19T04:43:17.328Z,242.47
2023-05-19T04:44:17.338Z,238.28
2023-05-19T04:45:17.292Z,233.69
2023-05-19T04:46:17.329Z,231.52
2023-05-19T04:47:17.287Z,235.74
2023-05-19T04:48:17.302Z,240.02
2023-05-19T04:49:17.371Z,241.56
2023-05-19T04:50:17.373Z,237.85
2023-05-19T04:51:17.379Z,233.76
2023-05-19T04:52:17.425Z,235.67
2023-05-19T04:53:17.458Z,238.94
2023-05-19T04:54:17.501Z,240.53
2023-05-19T04:55:17.533Z,241.39
2023-05-19T04:56:17.517Z,241.73
2023-05-19T04:57:17.513Z,243.98
2023-05-19T04:58:17.569Z,247.89
2023-05-19T04:59:17.567Z,249.77
2023-05-19T05:00:17.605Z,250.00
2023-05-19T05:01:17.764Z,249.44
2023-05-19T05:02:17.708Z,249.98
2023-05-19T05:03:17.883Z,250.00
2023-05-19T05:04:17.786Z,249.86
2023-05-19T05:05:17.810Z,249.02
2023-05-19T05:06:17.804Z,245.71
2023-05-19T05:07:17.816Z,245.17
2023-05-19T05:08:17.881Z,242.72
2023-05-19T05:09:17.873Z,240.38
2023-05-19T05:10:17.897Z,241.66
2023-05-19T05:11:18.023Z,241.33
2023-05-19T05:12:18.021Z,243.35
2023-05-19T05:13:18.063Z,244.23
2023-05-19T05:14:18.068Z,246.71
2023-05-19T05:15:18.093Z,248.34
2023-05-19T05:16:18.116Z,249.96
2023-05-19T05:17:18.102Z,248.71
2023-05-19T05:18:18.099Z,244.88
2023-05-19T05:19:18.143Z,244.41
2023-05-19T05:20:18.197Z,248.20
2023-05-19T05:21:18.220Z,241.47
2023-05-19T05:22:18.238Z,233.75
2023-05-19T05:23:18.244Z,232.29
2023-05-19T05:24:18.243Z,231.18
2023-05-19T05:25:18.314Z,231.95
2023-05-19T05:26:18.360Z,234.66
2023-05-19T05:27:18.344Z,239.62
2023-05-19T05:28:18.362Z,245.69
2023-05-19T05:29:18.386Z,246.37
2023-05-19T05:30:18.394Z,247.29
2023-05-19T05:31:18.469Z,245.63
2023-05-19T05:32:18.547Z,244.76
2023-05-19T05:33:18.711Z,242.40
2023-05-19T05:34:18.559Z,236.46
2023-05-19T05:35:18.574Z,237.34
2023-05-19T05:36:18.534Z,238.87
2023-05-19T05:37:18.575Z,236.32
2023-05-19T05:38:18.649Z,234.25
2023-05-19T05:39:18.649Z,232.97
2023-05-19T05:40:18.657Z,231.93
2023-05-19T05:41:18.715Z,229.87
2023-05-19T05:42:18.770Z,228.38
2023-05-19T05:43:18.757Z,224.16
2023-05-19T05:44:18.766Z,220.53
2023-05-19T05:45:18.824Z,218.56
2023-05-19T05:46:18.892Z,218.99
2023-05-19T05:47:18.899Z,219.51
2023-05-19T05:48:18.913Z,218.59
2023-05-19T05:49:18.970Z,219.35
2023-05-19T05:50:19.023Z,222.37
2023-05-19T05:51:19.052Z,222.33
2023-05-19T05:52:19.020Z,223.22
2023-05-19T05:53:19.046Z,223.07
2023-05-19T05:54:19.104Z,218.39
2023-05-19T05:55:19.113Z,218.61
2023-05-19T05:56:19.164Z,216.61
2023-05-19T05:57:19.218Z,216.53
2023-05-19T05:58:19.226Z,218.13
2023-05-19T05:59:19.274Z,212.78
2023-05-19T06:00:19.354Z,214.14
2023-05-19T06:01:19.389Z,221.88
2023-05-19T06:02:19.440Z,220.00
2023-05-19T06:03:19.541Z,217.88
2023-05-19T06:04:19.526Z,211.92
2023-05-19T06:05:19.585Z,212.53
2023-05-19T06:06:19.548Z,214.27
2023-05-19T06:07:19.602Z,207.93
2023-05-19T06:08:19.596Z,206.51
2023-05-19T06:09:19.612Z,198.59
2023-05-19T06:10:19.616Z,194.31
2023-05-19T06:11:19.644Z,192.28
2023-05-19T06:12:19.723Z,195.67
2023-05-19T06:13:19.793Z,201.78
2023-05-19T06:14:19.848Z,196.08
2023-05-19T06:15:19.847Z,203.02
2023-05-19T06:16:19.878Z,203.96
2023-05-19T06:17:19.921Z,198.79
2023-05-19T06:18:19.982Z,190.05
2023-05-19T06:19:20.047Z,186.91
2023-05-19T06:20:20.039Z,190.41
2023-05-19T06:21:20.026Z,187.84
2023-05-19T06:22:20.066Z,184.97
2023-05-19T06:23:20.107Z,181.99
2023-05-19T06:24:20.164Z,181.62
2023-05-19T06:25:20.189Z,180.03
2023-05-19T06:26:20.214Z,176.13
2023-05-19T06:27:20.307Z,182.04
2023-05-19T06:28:20.312Z,182.14
2023-05-19T06:29:20.388Z,182.63
2023-05-19T06:30:20.407Z,184.94
2023-05-19T06:31:20.479Z,189.71
2023-05-19T06:32:20.491Z,190.24
2023-05-19T06:33:20.519Z,188.99
2023-05-19T06:34:20.559Z,180.13
2023-05-19T06:35:20.534Z,176.24
2023-05-19T06:36:20.593Z,181.68
2023-05-19T06:37:20.616Z,183.40
2023-05-19T06:38:20.595Z,187.36
2023-05-19T06:39:20.670Z,193.29
2023-05-19T06:40:20.727Z,186.26
2023-05-19T06:41:20.767Z,184.20
2023-05-19T06:42:20.856Z,183.45
2023-05-19T06:43:20.836Z,185.43
2023-05-19T06:44:21.228Z,186.28
2023-05-19T06:45:20.900Z,180.61
2023-05-19T06:46:20.996Z,173.88
2023-05-19T06:47:20.972Z,169.16
2023-05-19T06:48:20.970Z,167.02
2023-05-19T06:49:21.016Z,165.51
2023-05-19T06:50:21.038Z,161.28
2023-05-19T06:51:21.100Z,157.78
2023-05-19T06:52:21.125Z,154.07
2023-05-19T06:53:21.156Z,157.06
2023-05-19T06:54:21.154Z,159.91
2023-05-19T06:55:21.204Z,162.67
2023-05-19T06:56:21.273Z,162.56
2023-05-19T06:57:21.259Z,162.66
2023-05-19T06:58:21.298Z,165.04
2023-05-19T06:59:21.300Z,163.99
2023-05-19T07:00:23.091Z,170.62
2023-05-19T07:01:21.394Z,172.83
2023-05-19T07:02:21.381Z,171.94
2023-05-19T07:03:21.422Z,169.80
2023-05-19T07:04:21.333Z,172.31
2023-05-19T07:05:21.332Z,166.08
2023-05-19T07:06:21.333Z,164.82
2023-05-19T07:07:21.353Z,163.08
2023-05-19T07:08:21.328Z,165.58
2023-05-19T07:09:21.338Z,167.22
2023-05-19T07:10:21.275Z,171.93
2023-05-19T07:11:21.290Z,168.82
2023-05-19T07:12:21.321Z,168.35
2023-05-19T07:13:21.291Z,163.44
2023-05-19T07:14:21.262Z,158.25
2023-05-19T07:15:21.291Z,157.98
2023-05-19T07:16:21.284Z,156.81
2023-05-19T07:17:21.259Z,157.31
2023-05-19T07:18:21.269Z,155.80
2023-05-19T07:19:21.400Z,156.94
2023-05-19T07:20:21.234Z,153.20
2023-05-19T07:21:21.237Z,151.40
2023-05-19T07:22:21.216Z,147.76
2023-05-19T07:23:21.234Z,145.91
2023-05-19T07:24:21.216Z,162.27
2023-05-19T07:25:21.203Z,173.71
2023-05-19T07:26:21.184Z,164.50
2023-05-19T07:27:21.196Z,150.99
2023-05-19T07:28:21.205Z,151.39
2023-05-19T07:29:21.179Z,150.11
2023-05-19T07:30:21.186Z,155.62
2023-05-19T07:31:21.204Z,163.19
2023-05-19T07:32:21.301Z,159.54
2023-05-19T07:33:21.159Z,154.81
2023-05-19T07:34:21.152Z,152.91
2023-05-19T07:35:21.178Z,152.63
2023-05-19T07:36:21.141Z,151.41
2023-05-19T07:37:21.133Z,149.78
2023-05-19T07:38:21.137Z,150.88
2023-05-19T07:39:21.209Z,148.74
2023-05-19T07:40:21.123Z,148.59
2023-05-19T07:41:21.094Z,147.63
2023-05-19T07:42:21.119Z,147.09
2023-05-19T07:43:21.078Z,154.21
2023-05-19T07:44:21.082Z,159.69
2023-05-19T07:45:21.080Z,164.01
2023-05-19T07:46:21.129Z,164.93
2023-05-19T07:48:13.668Z,25.00
2023-05-19T07:49:13.584Z,25.00
2023-05-19T07:50:13.611Z,25.00
2023-05-19T07:51:13.585Z,25.00
2023-05-19T07:52:13.549Z,25.00
2023-05-19T07:53:13.557Z,5.21
2023-05-19T07:54:13.561Z,0.00
2023-05-19T07:55:13.549Z,0.00
2023-05-19T07:56:13.552Z,0.00
2023-05-19T07:57:13.539Z,0.00
2023-05-19T07:58:13.518Z,60.35
2023-05-19T07:59:13.534Z,198.64
2023-05-19T08:00:13.531Z,281.11
2023-05-19T08:01:13.517Z,238.81
2023-05-19T08:02:13.503Z,170.15
2023-05-19T08:03:13.800Z,105.87
2023-05-19T08:04:13.590Z,42.95
2023-05-19T08:05:13.536Z,74.51
2023-05-19T08:06:13.482Z,117.90
2023-05-19T08:07:13.439Z,116.80
2023-05-19T08:08:13.451Z,107.30
2023-05-19T08:09:13.455Z,80.11
2023-05-19T08:10:13.452Z,99.07
2023-05-19T08:11:13.440Z,239.97
2023-05-19T08:12:13.426Z,239.35
2023-05-19T08:13:13.434Z,197.33
2023-05-19T08:14:13.437Z,180.99
2023-05-19T08:15:13.381Z,173.32
2023-05-19T08:16:13.442Z,227.49
2023-05-19T08:17:13.368Z,208.82
2023-05-19T08:18:13.509Z,192.25
2023-05-19T08:19:13.499Z,137.42
2023-05-19T08:20:13.426Z,183.01
2023-05-19T08:21:13.517Z,155.60
2023-05-19T08:22:13.616Z,267.78
2023-05-19T08:23:13.590Z,263.57
2023-05-19T08:24:13.580Z,199.65
2023-05-19T08:25:13.654Z,146.27
2023-05-19T08:26:14.270Z,110.61
2023-05-19T08:27:13.705Z,82.08
2023-05-19T08:28:13.733Z,46.96
2023-05-19T08:29:13.788Z,49.19
2023-05-19T08:30:13.799Z,52.82
2023-05-19T08:31:13.868Z,20.19
2023-05-19T08:32:13.838Z,77.12
2023-05-19T08:33:13.906Z,82.92
2023-05-19T08:34:13.902Z,28.90
2023-05-19T08:35:13.910Z,7.80
2023-05-19T08:36:13.920Z,27.46
2023-05-19T08:37:13.973Z,0.00
2023-05-19T08:38:14.042Z,0.00
2023-05-19T08:39:14.066Z,8.16
2023-05-19T08:40:14.115Z,24.84
2023-05-19T08:41:14.136Z,78.74
2023-05-19T08:42:14.155Z,103.01
2023-05-19T08:43:14.217Z,139.05
2023-05-19T08:44:14.996Z,116.01
2023-05-19T08:45:14.242Z,111.74
2023-05-19T08:46:14.262Z,83.36
2023-05-19T08:47:14.305Z,60.39
2023-05-19T08:48:14.370Z,64.01
2023-05-19T08:49:14.363Z,125.56
2023-05-19T08:50:14.368Z,148.95
2023-05-19T08:51:14.416Z,111.79
2023-05-19T08:52:14.415Z,90.08
2023-05-19T08:54:15.464Z,79.21
2023-05-19T08:55:14.467Z,55.65
2023-05-19T08:56:14.450Z,44.33
2023-05-19T08:57:14.480Z,104.52
2023-05-19T08:58:14.428Z,84.68
2023-05-19T08:59:14.414Z,58.61
2023-05-19T09:00:14.434Z,36.18
2023-05-19T09:01:14.498Z,44.89
2023-05-19T09:02:14.398Z,64.16
2023-05-19T09:04:14.479Z,50.23
2023-05-19T09:05:14.414Z,24.32
2023-05-19T09:06:14.427Z,25.00
2023-05-19T09:07:14.365Z,30.31
2023-05-19T09:08:14.382Z,39.80
2023-05-19T09:09:14.334Z,56.62
2023-05-19T09:10:14.370Z,46.08
2023-05-19T09:11:14.356Z,0.00
2023-05-19T09:12:14.352Z,9.63
2023-05-19T09:13:14.359Z,13.91
2023-05-19T09:14:14.328Z,25.23
2023-05-19T09:15:14.323Z,19.30
2023-05-19T09:16:14.365Z,9.18
2023-05-19T09:17:14.300Z,17.36
2023-05-19T09:18:14.317Z,25.00
2023-05-19T09:19:14.323Z,25.00
2023-05-19T09:20:14.313Z,37.07
2023-05-19T09:21:14.307Z,107.36
2023-05-19T09:22:14.297Z,190.68
2023-05-19T09:23:14.301Z,149.19
2023-05-19T09:24:14.293Z,118.08
2023-05-19T09:25:14.234Z,101.84
2023-05-19T09:26:14.294Z,97.15
2023-05-19T09:27:14.268Z,94.36
2023-05-19T09:28:14.241Z,92.67
2023-05-19T09:29:14.290Z,91.13
2023-05-19T09:30:14.263Z,100.57
2023-05-19T09:31:14.211Z,102.82
2023-05-19T09:32:14.255Z,101.76
2023-05-19T09:33:14.309Z,106.89
2023-05-19T09:34:14.196Z,83.86
2023-05-19T09:35:14.214Z,64.11
2023-05-19T09:36:14.194Z,69.35
2023-05-19T09:37:14.184Z,77.57
2023-05-19T09:38:14.192Z,70.18
2023-05-19T09:39:14.164Z,51.19
2023-05-19T09:40:14.177Z,43.69
2023-05-19T09:41:14.195Z,36.75
2023-05-19T09:42:14.145Z,32.05
2023-05-19T09:43:14.140Z,55.81
2023-05-19T09:44:14.166Z,53.21
2023-05-19T09:45:14.141Z,49.16
2023-05-19T09:46:14.869Z,47.31
2023-05-19T09:47:14.113Z,47.97
2023-05-19T09:48:14.115Z,52.47
2023-05-19T09:49:14.150Z,55.76
2023-05-19T09:50:14.146Z,60.76
2023-05-19T09:51:14.087Z,60.64
2023-05-19T09:52:14.120Z,71.64
2023-05-19T09:53:14.112Z,76.33
2023-05-19T09:54:14.107Z,85.80
2023-05-19T09:55:14.063Z,115.35
2023-05-19T09:56:14.078Z,104.72
2023-05-19T09:57:14.078Z,89.16
2023-05-19T09:58:14.076Z,92.27
2023-05-19T09:59:14.049Z,120.83
2023-05-19T10:00:14.106Z,93.56
2023-05-19T10:01:14.156Z,72.21
2023-05-19T10:02:14.166Z,83.80
2023-05-19T10:03:14.231Z,74.36
2023-05-19T10:04:14.226Z,64.41
2023-05-19T10:05:14.386Z,93.84
2023-05-19T10:06:14.265Z,105.41
2023-05-19T10:07:14.348Z,102.83
2023-05-19T10:08:14.338Z,103.74
2023-05-19T10:09:14.380Z,76.44
2023-05-19T10:10:14.417Z,60.18
2023-05-19T10:11:14.444Z,36.37
2023-05-19T10:12:14.479Z,26.99
2023-05-19T10:13:14.496Z,24.19
2023-05-19T10:14:14.487Z,25.00
2023-05-19T10:15:14.536Z,25.00
2023-05-19T10:16:14.609Z,25.18
2023-05-19T10:17:14.572Z,33.24
2023-05-19T10:18:14.671Z,32.43
2023-05-19T10:19:14.761Z,40.58
2023-05-19T10:20:14.705Z,59.00
2023-05-19T10:21:14.741Z,59.18
2023-05-19T10:22:14.766Z,77.06
2023-05-19T10:23:14.788Z,87.18
2023-05-19T10:24:14.862Z,70.53
2023-05-19T10:25:14.867Z,63.41
2023-05-19T10:26:14.947Z,59.10
2023-05-19T10:27:14.951Z,63.50
2023-05-19T10:28:15.018Z,77.41
2023-05-19T10:29:15.029Z,75.30
2023-05-19T10:30:16.342Z,77.83
2023-05-19T10:31:15.078Z,78.57
2023-05-19T10:32:15.092Z,58.45
2023-05-19T10:33:15.123Z,55.35
2023-05-19T10:34:15.143Z,55.40
2023-05-19T10:35:15.141Z,51.55
2023-05-19T10:36:15.177Z,40.26
2023-05-19T10:37:15.200Z,42.98
2023-05-19T10:38:15.264Z,61.60
2023-05-19T10:39:15.278Z,55.18
2023-05-19T10:40:15.300Z,60.37
2023-05-19T10:41:15.305Z,56.05
2023-05-19T10:42:15.326Z,55.98
2023-05-19T10:43:15.346Z,63.01
2023-05-19T10:44:15.394Z,55.46
2023-05-19T10:45:15.396Z,63.51
2023-05-19T10:46:15.451Z,56.02
2023-05-19T10:47:15.521Z,39.38
2023-05-19T10:48:15.525Z,28.28
2023-05-19T10:49:15.538Z,20.16
2023-05-19T10:50:15.759Z,29.64
2023-05-19T10:51:15.643Z,24.96
2023-05-19T10:52:15.661Z,23.20
2023-05-19T10:53:15.702Z,24.72
2023-05-19T10:54:15.704Z,25.00
2023-05-19T10:55:15.790Z,34.43
2023-05-19T10:56:15.783Z,42.94
2023-05-19T10:57:15.846Z,45.44
2023-05-19T10:58:15.896Z,50.87
2023-05-19T10:59:15.907Z,64.48
2023-05-19T11:00:15.941Z,59.25
2023-05-19T11:01:16.040Z,48.52
2023-05-19T11:02:16.099Z,53.02
2023-05-19T11:03:16.123Z,51.66
2023-05-19T11:04:16.126Z,50.58
2023-05-19T11:05:16.103Z,50.35
2023-05-19T11:06:16.153Z,61.79
2023-05-19T11:07:16.168Z,55.65
2023-05-19T11:08:16.200Z,39.77
2023-05-19T11:09:16.213Z,36.87
2023-05-19T11:10:16.283Z,40.66
2023-05-19T11:11:16.318Z,38.04
2023-05-19T11:12:16.333Z,37.98
2023-05-19T11:13:16.359Z,44.40
2023-05-19T11:14:16.417Z,46.04
2023-05-19T11:15:16.644Z,63.40
2023-05-19T11:16:16.431Z,67.46
2023-05-19T11:17:16.479Z,65.52
2023-05-19T11:18:16.518Z,67.75
2023-05-19T11:19:16.547Z,49.82
2023-05-19T11:20:16.601Z,37.68
2023-05-19T11:21:16.693Z,28.76
2023-05-19T11:22:16.644Z,30.22
2023-05-19T11:23:16.729Z,31.12
2023-05-19T11:24:16.737Z,22.89
2023-05-19T11:25:16.739Z,47.35
2023-05-19T11:26:16.791Z,49.53
2023-05-19T11:27:16.779Z,24.91
2023-05-19T11:28:16.839Z,31.33
2023-05-19T11:29:16.858Z,29.23
2023-05-19T11:30:16.903Z,29.84
2023-05-19T11:31:16.940Z,42.04
2023-05-19T11:32:16.971Z,16.65
2023-05-19T11:33:17.001Z,0.00
2023-05-19T11:34:16.993Z,0.00
2023-05-19T11:35:17.038Z,14.76
2023-05-19T11:36:17.064Z,28.20
2023-05-19T11:37:17.079Z,27.78
2023-05-19T11:38:17.134Z,25.22
2023-05-19T11:39:17.136Z,33.04
2023-05-19T11:40:17.201Z,33.30
2023-05-19T11:41:18.906Z,53.28
2023-05-19T11:42:17.171Z,59.68
2023-05-19T11:43:17.241Z,63.43
2023-05-19T11:44:17.197Z,77.31
2023-05-19T11:45:17.157Z,93.29
2023-05-19T11:46:17.167Z,97.17
2023-05-19T11:47:17.181Z,104.13
2023-05-19T11:48:17.389Z,114.81
2023-05-19T11:49:17.150Z,99.50
2023-05-19T11:50:17.169Z,100.38
2023-05-19T11:51:17.174Z,100.39
2023-05-19T11:52:17.118Z,82.59
2023-05-19T11:53:17.108Z,69.87
2023-05-19T11:54:17.118Z,60.12
2023-05-19T11:55:17.103Z,58.48
2023-05-19T11:56:17.100Z,39.25
2023-05-19T11:57:17.205Z,42.43
2023-05-19T11:58:17.405Z,41.01
2023-05-19T11:59:17.077Z,39.61
2023-05-19T12:00:17.057Z,30.68
2023-05-19T12:01:17.087Z,39.75
2023-05-19T12:02:17.113Z,34.76
2023-05-19T12:03:17.191Z,31.83
2023-05-19T12:04:17.056Z,36.81
2023-05-19T12:05:17.134Z,38.38
2023-05-19T12:06:17.086Z,43.04
2023-05-19T12:07:17.009Z,53.45
2023-05-19T12:08:17.020Z,31.71
2023-05-19T12:09:17.039Z,30.22
2023-05-19T12:10:17.028Z,31.40
2023-05-19T12:11:18.127Z,33.90
2023-05-19T12:12:17.133Z,19.87
2023-05-19T12:13:16.999Z,23.55
2023-05-19T12:14:17.016Z,34.65
2023-05-19T12:15:16.970Z,43.56
2023-05-19T12:16:17.068Z,39.81
2023-05-19T12:17:17.001Z,39.62
2023-05-19T12:18:16.947Z,30.14
2023-05-19T12:19:16.984Z,33.21
2023-05-19T12:20:16.985Z,54.27
2023-05-19T12:21:16.957Z,62.73
2023-05-19T12:22:16.959Z,62.41
2023-05-19T12:23:16.929Z,68.06
2023-05-19T12:24:16.923Z,68.30
2023-05-19T12:25:16.937Z,73.30
2023-05-19T12:26:16.904Z,75.86
2023-05-19T12:27:16.917Z,68.11
2023-05-19T12:28:16.923Z,47.44
2023-05-19T12:29:16.890Z,41.74
2023-05-19T12:30:16.968Z,57.71
2023-05-19T12:31:17.012Z,77.40
2023-05-19T12:32:17.015Z,83.93
2023-05-19T12:33:17.036Z,75.44
2023-05-19T12:34:17.065Z,72.84
2023-05-19T12:35:17.097Z,87.72
2023-05-19T12:36:17.138Z,79.77
2023-05-19T12:37:17.168Z,70.63
2023-05-19T12:38:17.176Z,61.42
2023-05-19T12:39:18.046Z,61.30